sensor_id;sensor_type;location;lat;lon;timestamp;temperature;humidity
12015;DHT22;6066;48.138;16.402;2023-09-12T00:00:09;18.40;99.90
12015;DHT22;6066;48.138;16.402;2023-09-12T00:02:37;18.40;99.90
12015;DHT22;6066;48.138;16.402;2023-09-12T00:05:03;18.40;99.90
12015;DHT22;6066;48.138;16.402;2023-09-12T00:07:30;18.40;99.90
12015;DHT22;6066;48.138;16.402;2023-09-12T00:09:57;18.40;99.90
12015;DHT22;6066;48.138;16.402;2023-09-12T00:12:25;18.30;99.90
12015;DHT22;6066;48.138;16.402;2023-09-12T00:14:52;18.30;99.90
12015;DHT22;6066;48.138;16.402;2023-09-12T00:17:18;18.30;99.90
12015;DHT22;6066;48.138;16.402;2023-09-12T00:19:45;18.30;99.90
12015;DHT22;6066;48.138;16.402;2023-09-12T00:22:12;18.20;99.90
12015;DHT22;6066;48.138;16.402;2023-09-12T00:24:38;18.20;99.90
12015;DHT22;6066;48.138;16.402;2023-09-12T00:27:05;18.10;99.90
12015;DHT22;6066;48.138;16.402;2023-09-12T00:29:34;18.10;99.90
12015;DHT22;6066;48.138;16.402;2023-09-12T00:32:00;18.00;99.90
12015;DHT22;6066;48.138;16.402;2023-09-12T00:34:27;18.00;99.90
12015;DHT22;6066;48.138;16.402;2023-09-12T00:36:54;17.90;99.90
12015;DHT22;6066;48.138;16.402;2023-09-12T00:39:20;17.90;99.90
12015;DHT22;6066;48.138;16.402;2023-09-12T00:41:47;17.90;99.90
12015;DHT22;6066;48.138;16.402;2023-09-12T00:44:14;17.90;99.90
12015;DHT22;6066;48.138;16.402;2023-09-12T00:46:42;17.90;99.90
12015;DHT22;6066;48.138;16.402;2023-09-12T00:49:10;17.80;99.90
12015;DHT22;6066;48.138;16.402;2023-09-12T00:51:37;17.90;99.90
12015;DHT22;6066;48.138;16.402;2023-09-12T00:54:03;17.90;99.90
12015;DHT22;6066;48.138;16.402;2023-09-12T00:56:30;17.80;99.90
12015;DHT22;6066;48.138;16.402;2023-09-12T00:58:58;17.80;99.90
12015;DHT22;6066;48.138;16.402;2023-09-12T01:01:25;17.80;99.90
12015;DHT22;6066;48.138;16.402;2023-09-12T01:03:53;17.80;99.90
12015;DHT22;6066;48.138;16.402;2023-09-12T01:06:21;17.80;99.90
12015;DHT22;6066;48.138;16.402;2023-09-12T01:08:48;17.80;99.90
12015;DHT22;6066;48.138;16.402;2023-09-12T01:11:15;17.70;99.90
12015;DHT22;6066;48.138;16.402;2023-09-12T01:13:42;17.70;99.90
12015;DHT22;6066;48.138;16.402;2023-09-12T01:16:09;17.70;99.90
12015;DHT22;6066;48.138;16.402;2023-09-12T01:18:36;17.70;99.90
12015;DHT22;6066;48.138;16.402;2023-09-12T01:21:11;17.70;99.90
12015;DHT22;6066;48.138;16.402;2023-09-12T01:23:44;17.70;99.90
12015;DHT22;6066;48.138;16.402;2023-09-12T01:26:26;17.60;99.90
12015;DHT22;6066;48.138;16.402;2023-09-12T01:28:56;17.60;99.90
12015;DHT22;6066;48.138;16.402;2023-09-12T01:31:23;17.60;99.90
12015;DHT22;6066;48.138;16.402;2023-09-12T01:33:54;17.60;99.90
12015;DHT22;6066;48.138;16.402;2023-09-12T01:36:21;17.50;99.90
12015;DHT22;6066;48.138;16.402;2023-09-12T01:38:47;17.50;99.90
12015;DHT22;6066;48.138;16.402;2023-09-12T01:41:14;17.50;99.90
12015;DHT22;6066;48.138;16.402;2023-09-12T01:43:41;17.50;99.90
12015;DHT22;6066;48.138;16.402;2023-09-12T01:46:10;17.50;99.90
12015;DHT22;6066;48.138;16.402;2023-09-12T01:48:37;17.40;99.90
12015;DHT22;6066;48.138;16.402;2023-09-12T01:51:04;17.40;99.90
12015;DHT22;6066;48.138;16.402;2023-09-12T01:53:31;17.30;99.90
12015;DHT22;6066;48.138;16.402;2023-09-12T01:55:59;17.30;99.90
12015;DHT22;6066;48.138;16.402;2023-09-12T01:58:26;17.30;99.90
12015;DHT22;6066;48.138;16.402;2023-09-12T02:00:53;17.30;99.90
12015;DHT22;6066;48.138;16.402;2023-09-12T02:03:21;17.30;99.90
12015;DHT22;6066;48.138;16.402;2023-09-12T02:05:47;17.30;99.90
12015;DHT22;6066;48.138;16.402;2023-09-12T02:08:14;17.20;99.90
12015;DHT22;6066;48.138;16.402;2023-09-12T02:10:41;17.30;99.90
12015;DHT22;6066;48.138;16.402;2023-09-12T02:13:08;17.30;99.90
12015;DHT22;6066;48.138;16.402;2023-09-12T02:15:34;17.30;99.90
12015;DHT22;6066;48.138;16.402;2023-09-12T02:18:01;17.20;99.90
12015;DHT22;6066;48.138;16.402;2023-09-12T02:20:30;17.20;99.90
12015;DHT22;6066;48.138;16.402;2023-09-12T02:22:57;17.20;99.90
12015;DHT22;6066;48.138;16.402;2023-09-12T02:25:24;17.20;99.90
12015;DHT22;6066;48.138;16.402;2023-09-12T02:27:51;17.20;99.90
12015;DHT22;6066;48.138;16.402;2023-09-12T02:30:17;17.20;99.90
12015;DHT22;6066;48.138;16.402;2023-09-12T02:32:44;17.10;99.90
12015;DHT22;6066;48.138;16.402;2023-09-12T02:35:11;17.10;99.90
12015;DHT22;6066;48.138;16.402;2023-09-12T02:37:39;17.10;99.90
12015;DHT22;6066;48.138;16.402;2023-09-12T02:40:06;17.00;99.90
12015;DHT22;6066;48.138;16.402;2023-09-12T02:42:36;17.00;99.90
12015;DHT22;6066;48.138;16.402;2023-09-12T02:45:03;17.00;99.90
12015;DHT22;6066;48.138;16.402;2023-09-12T02:47:30;17.00;99.90
12015;DHT22;6066;48.138;16.402;2023-09-12T02:49:56;17.00;99.90
12015;DHT22;6066;48.138;16.402;2023-09-12T02:52:23;17.10;99.90
12015;DHT22;6066;48.138;16.402;2023-09-12T02:54:51;17.00;99.90
12015;DHT22;6066;48.138;16.402;2023-09-12T02:57:18;17.00;99.90
12015;DHT22;6066;48.138;16.402;2023-09-12T02:59:44;16.90;99.90
12015;DHT22;6066;48.138;16.402;2023-09-12T03:02:11;16.80;99.90
12015;DHT22;6066;48.138;16.402;2023-09-12T03:04:38;16.80;99.90
12015;DHT22;6066;48.138;16.402;2023-09-12T03:07:05;16.80;99.90
12015;DHT22;6066;48.138;16.402;2023-09-12T03:09:31;16.70;99.90
12015;DHT22;6066;48.138;16.402;2023-09-12T03:12:01;16.70;99.90
12015;DHT22;6066;48.138;16.402;2023-09-12T03:14:28;16.70;99.90
12015;DHT22;6066;48.138;16.402;2023-09-12T03:16:55;16.70;99.90
12015;DHT22;6066;48.138;16.402;2023-09-12T03:19:22;16.70;99.90
12015;DHT22;6066;48.138;16.402;2023-09-12T03:21:49;16.70;99.90
12015;DHT22;6066;48.138;16.402;2023-09-12T03:24:15;16.60;99.90
12015;DHT22;6066;48.138;16.402;2023-09-12T03:26:43;16.50;99.90
12015;DHT22;6066;48.138;16.402;2023-09-12T03:29:12;16.50;99.90
12015;DHT22;6066;48.138;16.402;2023-09-12T03:31:41;16.50;99.90
12015;DHT22;6066;48.138;16.402;2023-09-12T03:34:08;16.50;99.90
12015;DHT22;6066;48.138;16.402;2023-09-12T03:36:34;16.50;99.90
12015;DHT22;6066;48.138;16.402;2023-09-12T03:39:01;16.50;99.90
12015;DHT22;6066;48.138;16.402;2023-09-12T03:41:30;16.50;99.90
12015;DHT22;6066;48.138;16.402;2023-09-12T03:43:57;16.50;99.90
12015;DHT22;6066;48.138;16.402;2023-09-12T03:46:25;16.50;99.90
12015;DHT22;6066;48.138;16.402;2023-09-12T03:48:52;16.50;99.90
12015;DHT22;6066;48.138;16.402;2023-09-12T03:51:18;16.50;99.90
12015;DHT22;6066;48.138;16.402;2023-09-12T03:53:45;16.50;99.90
12015;DHT22;6066;48.138;16.402;2023-09-12T03:56:13;16.50;99.90
12015;DHT22;6066;48.138;16.402;2023-09-12T03:58:40;16.50;99.90
12015;DHT22;6066;48.138;16.402;2023-09-12T04:01:07;16.50;99.90
12015;DHT22;6066;48.138;16.402;2023-09-12T04:03:35;16.50;99.90
12015;DHT22;6066;48.138;16.402;2023-09-12T04:06:01;16.60;99.90
12015;DHT22;6066;48.138;16.402;2023-09-12T04:08:28;16.60;99.90
12015;DHT22;6066;48.138;16.402;2023-09-12T04:10:55;16.60;99.90
12015;DHT22;6066;48.138;16.402;2023-09-12T04:13:21;16.60;99.90
12015;DHT22;6066;48.138;16.402;2023-09-12T04:15:48;16.60;99.90
12015;DHT22;6066;48.138;16.402;2023-09-12T04:18:15;16.50;99.90
12015;DHT22;6066;48.138;16.402;2023-09-12T04:20:43;16.50;99.90
12015;DHT22;6066;48.138;16.402;2023-09-12T04:23:10;16.50;99.90
12015;DHT22;6066;48.138;16.402;2023-09-12T04:25:37;16.40;99.90
12015;DHT22;6066;48.138;16.402;2023-09-12T04:28:04;16.40;99.90
12015;DHT22;6066;48.138;16.402;2023-09-12T04:30:31;16.40;99.90
12015;DHT22;6066;48.138;16.402;2023-09-12T04:32:57;16.30;99.90
12015;DHT22;6066;48.138;16.402;2023-09-12T04:35:24;16.20;99.90
12015;DHT22;6066;48.138;16.402;2023-09-12T04:37:52;16.20;99.90
12015;DHT22;6066;48.138;16.402;2023-09-12T04:40:19;16.20;99.90
12015;DHT22;6066;48.138;16.402;2023-09-12T04:42:46;16.20;99.90
12015;DHT22;6066;48.138;16.402;2023-09-12T04:45:13;16.20;99.90
12015;DHT22;6066;48.138;16.402;2023-09-12T04:47:39;16.10;99.90
12015;DHT22;6066;48.138;16.402;2023-09-12T04:50:06;16.20;99.90
12015;DHT22;6066;48.138;16.402;2023-09-12T04:52:33;16.20;99.90
12015;DHT22;6066;48.138;16.402;2023-09-12T04:55:01;16.20;99.90
12015;DHT22;6066;48.138;16.402;2023-09-12T04:57:29;16.20;99.90
12015;DHT22;6066;48.138;16.402;2023-09-12T04:59:56;16.30;99.90
12015;DHT22;6066;48.138;16.402;2023-09-12T05:02:23;16.30;99.90
12015;DHT22;6066;48.138;16.402;2023-09-12T05:04:50;16.30;99.90
12015;DHT22;6066;48.138;16.402;2023-09-12T05:07:17;16.30;99.90
12015;DHT22;6066;48.138;16.402;2023-09-12T05:09:43;16.30;99.90
12015;DHT22;6066;48.138;16.402;2023-09-12T05:12:11;16.30;99.90
12015;DHT22;6066;48.138;16.402;2023-09-12T05:14:39;16.30;99.90
12015;DHT22;6066;48.138;16.402;2023-09-12T05:17:06;16.40;99.90
12015;DHT22;6066;48.138;16.402;2023-09-12T05:19:32;16.40;99.90
12015;DHT22;6066;48.138;16.402;2023-09-12T05:21:59;16.40;99.90
12015;DHT22;6066;48.138;16.402;2023-09-12T05:24:26;16.50;99.90
12015;DHT22;6066;48.138;16.402;2023-09-12T05:26:52;16.50;99.90
12015;DHT22;6066;48.138;16.402;2023-09-12T05:29:20;16.60;99.90
12015;DHT22;6066;48.138;16.402;2023-09-12T05:31:47;16.70;99.90
12015;DHT22;6066;48.138;16.402;2023-09-12T05:34:14;16.70;99.90
12015;DHT22;6066;48.138;16.402;2023-09-12T05:36:40;16.80;99.90
12015;DHT22;6066;48.138;16.402;2023-09-12T05:39:07;16.90;99.90
12015;DHT22;6066;48.138;16.402;2023-09-12T05:41:34;16.90;99.90
12015;DHT22;6066;48.138;16.402;2023-09-12T05:44:01;17.00;99.90
12015;DHT22;6066;48.138;16.402;2023-09-12T05:46:29;17.10;99.90
12015;DHT22;6066;48.138;16.402;2023-09-12T05:48:56;17.10;99.90
12015;DHT22;6066;48.138;16.402;2023-09-12T05:51:22;17.20;99.90
12015;DHT22;6066;48.138;16.402;2023-09-12T05:53:49;17.30;99.90
12015;DHT22;6066;48.138;16.402;2023-09-12T05:56:16;17.40;99.90
12015;DHT22;6066;48.138;16.402;2023-09-12T05:58:42;17.50;99.90
12015;DHT22;6066;48.138;16.402;2023-09-12T06:01:09;17.60;99.90
12015;DHT22;6066;48.138;16.402;2023-09-12T06:03:37;17.70;99.90
12015;DHT22;6066;48.138;16.402;2023-09-12T06:06:04;17.80;99.90
12015;DHT22;6066;48.138;16.402;2023-09-12T06:08:31;17.90;99.90
12015;DHT22;6066;48.138;16.402;2023-09-12T06:10:57;18.00;99.90
12015;DHT22;6066;48.138;16.402;2023-09-12T06:13:24;18.10;99.90
12015;DHT22;6066;48.138;16.402;2023-09-12T06:15:51;18.20;99.90
12015;DHT22;6066;48.138;16.402;2023-09-12T06:18:17;18.30;99.90
12015;DHT22;6066;48.138;16.402;2023-09-12T06:20:47;18.40;99.90
12015;DHT22;6066;48.138;16.402;2023-09-12T06:23:17;18.50;99.90
12015;DHT22;6066;48.138;16.402;2023-09-12T06:25:44;18.50;99.90
12015;DHT22;6066;48.138;16.402;2023-09-12T06:28:11;18.60;99.90
12015;DHT22;6066;48.138;16.402;2023-09-12T06:30:38;18.70;99.90
12015;DHT22;6066;48.138;16.402;2023-09-12T06:33:05;18.80;99.90
12015;DHT22;6066;48.138;16.402;2023-09-12T06:35:31;18.90;99.90
12015;DHT22;6066;48.138;16.402;2023-09-12T06:37:59;19.00;99.90
12015;DHT22;6066;48.138;16.402;2023-09-12T06:40:26;19.10;99.90
12015;DHT22;6066;48.138;16.402;2023-09-12T06:42:53;19.20;99.90
12015;DHT22;6066;48.138;16.402;2023-09-12T06:45:19;19.20;99.90
12015;DHT22;6066;48.138;16.402;2023-09-12T06:47:49;19.30;99.90
12015;DHT22;6066;48.138;16.402;2023-09-12T06:50:16;19.40;99.90
12015;DHT22;6066;48.138;16.402;2023-09-12T06:52:43;19.50;99.90
12015;DHT22;6066;48.138;16.402;2023-09-12T06:55:11;19.60;99.90
12015;DHT22;6066;48.138;16.402;2023-09-12T06:57:38;19.70;99.90
12015;DHT22;6066;48.138;16.402;2023-09-12T07:00:07;19.80;99.90
12015;DHT22;6066;48.138;16.402;2023-09-12T07:02:34;19.90;99.90
12015;DHT22;6066;48.138;16.402;2023-09-12T07:05:01;20.00;99.90
12015;DHT22;6066;48.138;16.402;2023-09-12T07:07:29;20.10;99.90
12015;DHT22;6066;48.138;16.402;2023-09-12T07:09:56;20.10;99.90
12015;DHT22;6066;48.138;16.402;2023-09-12T07:12:26;20.20;99.90
12015;DHT22;6066;48.138;16.402;2023-09-12T07:14:54;20.20;99.90
12015;DHT22;6066;48.138;16.402;2023-09-12T07:17:21;20.30;99.90
12015;DHT22;6066;48.138;16.402;2023-09-12T07:19:48;20.40;99.90
12015;DHT22;6066;48.138;16.402;2023-09-12T07:22:14;20.40;99.90
12015;DHT22;6066;48.138;16.402;2023-09-12T07:24:41;20.50;99.90
12015;DHT22;6066;48.138;16.402;2023-09-12T07:27:08;20.60;99.90
12015;DHT22;6066;48.138;16.402;2023-09-12T07:29:43;20.60;99.90
12015;DHT22;6066;48.138;16.402;2023-09-12T07:32:10;20.70;99.90
12015;DHT22;6066;48.138;16.402;2023-09-12T07:34:37;20.80;99.90
12015;DHT22;6066;48.138;16.402;2023-09-12T07:37:04;20.90;99.90
12015;DHT22;6066;48.138;16.402;2023-09-12T07:39:31;21.00;99.90
12015;DHT22;6066;48.138;16.402;2023-09-12T07:41:57;21.10;99.90
12015;DHT22;6066;48.138;16.402;2023-09-12T07:44:28;21.30;99.90
12015;DHT22;6066;48.138;16.402;2023-09-12T07:46:56;21.40;99.90
12015;DHT22;6066;48.138;16.402;2023-09-12T07:49:22;21.50;99.90
12015;DHT22;6066;48.138;16.402;2023-09-12T07:51:51;21.60;99.90
12015;DHT22;6066;48.138;16.402;2023-09-12T07:54:19;21.70;99.90
12015;DHT22;6066;48.138;16.402;2023-09-12T07:56:47;21.80;99.90
12015;DHT22;6066;48.138;16.402;2023-09-12T07:59:14;21.90;99.90
12015;DHT22;6066;48.138;16.402;2023-09-12T08:01:41;22.00;99.90
12015;DHT22;6066;48.138;16.402;2023-09-12T08:04:09;22.10;99.90
12015;DHT22;6066;48.138;16.402;2023-09-12T08:06:35;22.20;99.90
12015;DHT22;6066;48.138;16.402;2023-09-12T08:09:02;22.30;99.90
12015;DHT22;6066;48.138;16.402;2023-09-12T08:11:29;22.40;99.90
12015;DHT22;6066;48.138;16.402;2023-09-12T08:13:56;22.40;99.90
12015;DHT22;6066;48.138;16.402;2023-09-12T08:16:23;22.50;99.90
12015;DHT22;6066;48.138;16.402;2023-09-12T08:18:49;22.60;99.90
12015;DHT22;6066;48.138;16.402;2023-09-12T08:21:20;22.70;99.90
12015;DHT22;6066;48.138;16.402;2023-09-12T08:23:46;22.80;99.90
12015;DHT22;6066;48.138;16.402;2023-09-12T08:26:13;22.90;99.90
12015;DHT22;6066;48.138;16.402;2023-09-12T08:28:40;23.00;99.90
12015;DHT22;6066;48.138;16.402;2023-09-12T08:31:07;23.10;99.90
12015;DHT22;6066;48.138;16.402;2023-09-12T08:33:33;23.10;99.90
12015;DHT22;6066;48.138;16.402;2023-09-12T08:36:00;23.20;99.90
12015;DHT22;6066;48.138;16.402;2023-09-12T08:38:28;23.40;99.90
12015;DHT22;6066;48.138;16.402;2023-09-12T08:40:55;23.50;99.90
12015;DHT22;6066;48.138;16.402;2023-09-12T08:43:22;23.60;99.90
12015;DHT22;6066;48.138;16.402;2023-09-12T08:45:49;23.70;99.90
12015;DHT22;6066;48.138;16.402;2023-09-12T08:48:16;23.80;99.90
12015;DHT22;6066;48.138;16.402;2023-09-12T08:50:44;23.80;99.90
12015;DHT22;6066;48.138;16.402;2023-09-12T08:53:15;23.90;99.90
12015;DHT22;6066;48.138;16.402;2023-09-12T08:55:46;23.90;99.90
12015;DHT22;6066;48.138;16.402;2023-09-12T08:58:13;24.00;99.90
12015;DHT22;6066;48.138;16.402;2023-09-12T09:00:40;24.10;99.90
12015;DHT22;6066;48.138;16.402;2023-09-12T09:03:08;24.10;99.90
12015;DHT22;6066;48.138;16.402;2023-09-12T09:05:35;24.00;99.90
12015;DHT22;6066;48.138;16.402;2023-09-12T09:08:02;24.00;99.90
12015;DHT22;6066;48.138;16.402;2023-09-12T09:10:29;24.10;99.90
12015;DHT22;6066;48.138;16.402;2023-09-12T09:12:59;24.10;99.90
12015;DHT22;6066;48.138;16.402;2023-09-12T09:15:28;24.30;99.90
12015;DHT22;6066;48.138;16.402;2023-09-12T09:17:56;24.40;99.90
12015;DHT22;6066;48.138;16.402;2023-09-12T09:20:26;24.50;99.90
12015;DHT22;6066;48.138;16.402;2023-09-12T09:22:58;24.60;99.90
12015;DHT22;6066;48.138;16.402;2023-09-12T09:25:25;24.80;99.90
12015;DHT22;6066;48.138;16.402;2023-09-12T09:27:51;24.90;99.90
12015;DHT22;6066;48.138;16.402;2023-09-12T09:30:20;25.00;99.90
12015;DHT22;6066;48.138;16.402;2023-09-12T09:33:04;25.10;99.90
12015;DHT22;6066;48.138;16.402;2023-09-12T09:35:31;25.20;99.90
12015;DHT22;6066;48.138;16.402;2023-09-12T09:37:58;25.30;99.90
12015;DHT22;6066;48.138;16.402;2023-09-12T09:40:25;25.40;99.90
12015;DHT22;6066;48.138;16.402;2023-09-12T09:42:53;25.40;99.90
12015;DHT22;6066;48.138;16.402;2023-09-12T09:45:21;25.50;99.90
12015;DHT22;6066;48.138;16.402;2023-09-12T09:47:48;25.60;99.90
12015;DHT22;6066;48.138;16.402;2023-09-12T09:50:15;25.70;99.90
12015;DHT22;6066;48.138;16.402;2023-09-12T09:52:42;25.80;99.90
12015;DHT22;6066;48.138;16.402;2023-09-12T09:55:12;25.90;99.90
12015;DHT22;6066;48.138;16.402;2023-09-12T09:57:40;25.90;99.90
12015;DHT22;6066;48.138;16.402;2023-09-12T10:00:07;25.90;99.90
12015;DHT22;6066;48.138;16.402;2023-09-12T10:02:41;25.90;99.90
12015;DHT22;6066;48.138;16.402;2023-09-12T10:05:08;25.80;99.90
12015;DHT22;6066;48.138;16.402;2023-09-12T10:07:36;25.80;99.90
12015;DHT22;6066;48.138;16.402;2023-09-12T10:10:05;25.90;99.90
12015;DHT22;6066;48.138;16.402;2023-09-12T10:12:33;26.00;99.90
12015;DHT22;6066;48.138;16.402;2023-09-12T10:15:01;26.10;99.90
12015;DHT22;6066;48.138;16.402;2023-09-12T10:17:31;26.20;99.90
12015;DHT22;6066;48.138;16.402;2023-09-12T10:20:01;26.30;99.90
12015;DHT22;6066;48.138;16.402;2023-09-12T10:22:32;26.40;99.90
12015;DHT22;6066;48.138;16.402;2023-09-12T10:24:58;26.40;99.90
12015;DHT22;6066;48.138;16.402;2023-09-12T10:27:26;26.50;99.90
12015;DHT22;6066;48.138;16.402;2023-09-12T10:29:56;26.60;99.90
12015;DHT22;6066;48.138;16.402;2023-09-12T10:32:25;26.80;99.90
12015;DHT22;6066;48.138;16.402;2023-09-12T10:34:55;27.00;99.90
12015;DHT22;6066;48.138;16.402;2023-09-12T10:37:25;27.30;99.90
12015;DHT22;6066;48.138;16.402;2023-09-12T10:39:52;27.40;99.90
12015;DHT22;6066;48.138;16.402;2023-09-12T10:42:23;27.40;99.90
12015;DHT22;6066;48.138;16.402;2023-09-12T10:44:50;27.50;99.90
12015;DHT22;6066;48.138;16.402;2023-09-12T10:47:18;27.60;99.90
12015;DHT22;6066;48.138;16.402;2023-09-12T10:49:44;27.70;99.90
12015;DHT22;6066;48.138;16.402;2023-09-12T10:52:23;27.80;99.90
12015;DHT22;6066;48.138;16.402;2023-09-12T10:54:51;27.80;99.90
12015;DHT22;6066;48.138;16.402;2023-09-12T10:57:18;27.80;99.90
12015;DHT22;6066;48.138;16.402;2023-09-12T11:00:09;27.90;99.90
12015;DHT22;6066;48.138;16.402;2023-09-12T11:02:37;27.90;99.90
12015;DHT22;6066;48.138;16.402;2023-09-12T11:05:04;28.00;99.90
12015;DHT22;6066;48.138;16.402;2023-09-12T11:07:32;28.10;99.90
12015;DHT22;6066;48.138;16.402;2023-09-12T11:10:19;28.20;99.90
12015;DHT22;6066;48.138;16.402;2023-09-12T11:12:49;28.20;99.90
12015;DHT22;6066;48.138;16.402;2023-09-12T11:15:16;28.30;99.90
12015;DHT22;6066;48.138;16.402;2023-09-12T11:17:44;28.30;99.90
12015;DHT22;6066;48.138;16.402;2023-09-12T11:20:11;28.40;99.90
12015;DHT22;6066;48.138;16.402;2023-09-12T11:22:39;28.40;99.90
12015;DHT22;6066;48.138;16.402;2023-09-12T11:25:15;28.50;99.90
12015;DHT22;6066;48.138;16.402;2023-09-12T11:27:45;28.50;99.90
12015;DHT22;6066;48.138;16.402;2023-09-12T11:30:21;28.60;99.90
12015;DHT22;6066;48.138;16.402;2023-09-12T11:32:48;28.70;99.90
12015;DHT22;6066;48.138;16.402;2023-09-12T11:35:22;28.80;99.90
12015;DHT22;6066;48.138;16.402;2023-09-12T11:37:51;28.90;99.90
12015;DHT22;6066;48.138;16.402;2023-09-12T11:40:24;29.00;99.90
12015;DHT22;6066;48.138;16.402;2023-09-12T11:42:52;29.10;99.90
12015;DHT22;6066;48.138;16.402;2023-09-12T11:45:20;29.10;99.90
12015;DHT22;6066;48.138;16.402;2023-09-12T11:47:55;29.20;99.90
12015;DHT22;6066;48.138;16.402;2023-09-12T11:50:25;29.30;99.90
12015;DHT22;6066;48.138;16.402;2023-09-12T11:52:57;29.40;99.90
12015;DHT22;6066;48.138;16.402;2023-09-12T11:55:30;29.50;99.90
12015;DHT22;6066;48.138;16.402;2023-09-12T11:57:58;29.50;99.90
12015;DHT22;6066;48.138;16.402;2023-09-12T12:00:25;29.60;99.90
12015;DHT22;6066;48.138;16.402;2023-09-12T12:02:55;29.50;99.90
12015;DHT22;6066;48.138;16.402;2023-09-12T12:05:22;29.50;99.90
12015;DHT22;6066;48.138;16.402;2023-09-12T12:07:49;29.50;99.90
12015;DHT22;6066;48.138;16.402;2023-09-12T12:10:23;29.60;99.90
12015;DHT22;6066;48.138;16.402;2023-09-12T12:12:57;29.50;99.90
12015;DHT22;6066;48.138;16.402;2023-09-12T12:15:26;29.60;99.90
12015;DHT22;6066;48.138;16.402;2023-09-12T12:17:54;29.60;99.90
12015;DHT22;6066;48.138;16.402;2023-09-12T12:20:20;29.60;99.90
12015;DHT22;6066;48.138;16.402;2023-09-12T12:22:50;29.70;99.90
12015;DHT22;6066;48.138;16.402;2023-09-12T12:25:18;29.80;99.90
12015;DHT22;6066;48.138;16.402;2023-09-12T12:27:45;29.90;99.90
12015;DHT22;6066;48.138;16.402;2023-09-12T12:30:12;30.00;99.90
12015;DHT22;6066;48.138;16.402;2023-09-12T12:32:43;29.90;99.90
12015;DHT22;6066;48.138;16.402;2023-09-12T12:35:16;30.00;99.90
12015;DHT22;6066;48.138;16.402;2023-09-12T12:37:43;30.00;99.90
12015;DHT22;6066;48.138;16.402;2023-09-12T12:40:11;30.20;99.90
12015;DHT22;6066;48.138;16.402;2023-09-12T12:42:38;30.20;99.90
12015;DHT22;6066;48.138;16.402;2023-09-12T12:45:10;30.20;99.90
12015;DHT22;6066;48.138;16.402;2023-09-12T12:47:37;30.20;99.90
12015;DHT22;6066;48.138;16.402;2023-09-12T12:50:08;30.10;99.90
12015;DHT22;6066;48.138;16.402;2023-09-12T12:52:36;30.10;99.90
12015;DHT22;6066;48.138;16.402;2023-09-12T12:55:04;30.10;99.90
12015;DHT22;6066;48.138;16.402;2023-09-12T12:57:30;30.10;99.90
12015;DHT22;6066;48.138;16.402;2023-09-12T12:59:58;30.10;99.90
12015;DHT22;6066;48.138;16.402;2023-09-12T13:02:25;30.20;99.90
12015;DHT22;6066;48.138;16.402;2023-09-12T13:04:51;30.20;99.90
12015;DHT22;6066;48.138;16.402;2023-09-12T13:07:19;30.20;99.90
12015;DHT22;6066;48.138;16.402;2023-09-12T13:09:46;30.30;99.90
12015;DHT22;6066;48.138;16.402;2023-09-12T13:12:15;30.40;99.90
12015;DHT22;6066;48.138;16.402;2023-09-12T13:14:45;30.40;99.90
12015;DHT22;6066;48.138;16.402;2023-09-12T13:17:11;30.30;99.90
12015;DHT22;6066;48.138;16.402;2023-09-12T13:19:38;30.30;99.90
12015;DHT22;6066;48.138;16.402;2023-09-12T13:22:05;30.20;99.90
12015;DHT22;6066;48.138;16.402;2023-09-12T13:24:33;30.30;99.90
12015;DHT22;6066;48.138;16.402;2023-09-12T13:27:06;30.40;99.90
12015;DHT22;6066;48.138;16.402;2023-09-12T13:29:32;30.40;99.90
12015;DHT22;6066;48.138;16.402;2023-09-12T13:31:59;30.30;99.90
12015;DHT22;6066;48.138;16.402;2023-09-12T13:42:06;30.20;99.90
12015;DHT22;6066;48.138;16.402;2023-09-12T13:44:33;30.20;99.90
12015;DHT22;6066;48.138;16.402;2023-09-12T13:47:00;30.10;99.90
12015;DHT22;6066;48.138;16.402;2023-09-12T13:49:27;30.10;99.90
12015;DHT22;6066;48.138;16.402;2023-09-12T13:51:55;30.10;99.90
12015;DHT22;6066;48.138;16.402;2023-09-12T13:54:22;30.10;99.90
12015;DHT22;6066;48.138;16.402;2023-09-12T13:56:49;30.00;99.90
12015;DHT22;6066;48.138;16.402;2023-09-12T13:59:17;30.00;99.90
12015;DHT22;6066;48.138;16.402;2023-09-12T14:01:45;29.90;99.90
12015;DHT22;6066;48.138;16.402;2023-09-12T14:04:12;29.90;99.90
12015;DHT22;6066;48.138;16.402;2023-09-12T14:06:43;29.90;99.90
12015;DHT22;6066;48.138;16.402;2023-09-12T14:09:09;29.90;99.90
12015;DHT22;6066;48.138;16.402;2023-09-12T14:11:36;29.90;99.90
12015;DHT22;6066;48.138;16.402;2023-09-12T14:14:05;30.00;99.90
12015;DHT22;6066;48.138;16.402;2023-09-12T14:16:33;30.00;99.90
12015;DHT22;6066;48.138;16.402;2023-09-12T14:18:59;30.00;99.90
12015;DHT22;6066;48.138;16.402;2023-09-12T14:21:29;29.90;99.90
12015;DHT22;6066;48.138;16.402;2023-09-12T14:23:56;29.90;99.90
12015;DHT22;6066;48.138;16.402;2023-09-12T14:26:23;29.90;99.90
12015;DHT22;6066;48.138;16.402;2023-09-12T14:28:54;29.80;99.90
12015;DHT22;6066;48.138;16.402;2023-09-12T14:31:21;29.70;99.90
12015;DHT22;6066;48.138;16.402;2023-09-12T14:33:51;29.60;99.90
12015;DHT22;6066;48.138;16.402;2023-09-12T14:36:18;29.60;99.90
12015;DHT22;6066;48.138;16.402;2023-09-12T14:38:45;29.60;99.90
12015;DHT22;6066;48.138;16.402;2023-09-12T14:41:12;29.60;99.90
12015;DHT22;6066;48.138;16.402;2023-09-12T14:43:40;29.60;99.90
12015;DHT22;6066;48.138;16.402;2023-09-12T14:46:07;29.50;99.90
12015;DHT22;6066;48.138;16.402;2023-09-12T14:48:34;29.50;99.90
12015;DHT22;6066;48.138;16.402;2023-09-12T14:51:04;29.40;99.90
12015;DHT22;6066;48.138;16.402;2023-09-12T14:53:31;29.40;99.90
12015;DHT22;6066;48.138;16.402;2023-09-12T14:55:58;29.30;99.90
12015;DHT22;6066;48.138;16.402;2023-09-12T14:58:25;29.20;99.90
12015;DHT22;6066;48.138;16.402;2023-09-12T15:00:52;29.20;99.90
12015;DHT22;6066;48.138;16.402;2023-09-12T15:03:18;29.20;99.90
12015;DHT22;6066;48.138;16.402;2023-09-12T15:05:45;29.10;99.90
12015;DHT22;6066;48.138;16.402;2023-09-12T15:08:13;29.00;99.90
12015;DHT22;6066;48.138;16.402;2023-09-12T15:10:40;28.80;99.90
12015;DHT22;6066;48.138;16.402;2023-09-12T15:13:08;28.60;99.90
12015;DHT22;6066;48.138;16.402;2023-09-12T15:15:36;28.50;99.90
12015;DHT22;6066;48.138;16.402;2023-09-12T15:18:04;28.30;99.90
12015;DHT22;6066;48.138;16.402;2023-09-12T15:20:33;28.20;99.90
12015;DHT22;6066;48.138;16.402;2023-09-12T15:23:01;28.10;99.90
12015;DHT22;6066;48.138;16.402;2023-09-12T15:25:32;28.10;99.90
12015;DHT22;6066;48.138;16.402;2023-09-12T15:28:02;28.10;99.90
12015;DHT22;6066;48.138;16.402;2023-09-12T15:30:29;28.10;99.90
12015;DHT22;6066;48.138;16.402;2023-09-12T15:38:07;28.10;99.90
12015;DHT22;6066;48.138;16.402;2023-09-12T15:40:44;28.10;99.90
12015;DHT22;6066;48.138;16.402;2023-09-12T15:43:11;28.20;99.90
12015;DHT22;6066;48.138;16.402;2023-09-12T15:45:38;28.10;99.90